Time;durP1;ratioP1;P1;durP2;ratioP2;P2;SDS_P1;SDS_P2;PMS_P1;PMS_P2;Temp;Humidity;BMP_temperature;BMP_pressure;BME280_temperature;BME280_humidity;BME280_pressure;Samples;Min_cycle;Max_cycle;Signal;HPM_P1;HPM_P2
2023/01/06 00:01:17;;;;;;;1.65;1.00;;;9.90;99.90;;;;;;6221697;23;20161;-86
2023/01/06 00:03:42;;;;;;;2.60;0.90;;;9.90;99.90;;;;;;6221641;23;20163;-83
2023/01/06 00:06:10;;;;;;;0.87;0.87;;;9.90;99.90;;;;;;6221130;23;20232;-80
2023/01/06 00:08:36;;;;;;;4.10;1.02;;;9.90;99.90;;;;;;6261819;22;20234;-84
2023/01/06 00:11:10;;;;;;;0.93;0.70;;;9.90;99.90;;;;;;6250894;23;20187;-84
2023/01/06 00:13:37;;;;;;;2.45;0.82;;;9.90;99.90;;;;;;6222417;23;20155;-85
2023/01/06 00:16:06;;;;;;;2.47;0.98;;;9.90;99.90;;;;;;6220227;23;20164;-86
2023/01/06 00:18:32;;;;;;;0.65;0.65;;;9.90;99.90;;;;;;6220691;23;20204;-85
2023/01/06 00:20:59;;;;;;;1.20;1.03;;;9.70;99.90;;;;;;6220676;23;20148;-84
2023/01/06 00:23:24;;;;;;;1.08;0.88;;;9.70;99.90;;;;;;6220919;23;20379;-83
2023/01/06 00:25:50;;;;;;;3.83;1.10;;;9.70;99.90;;;;;;6220772;23;20243;-85
2023/01/06 00:28:16;;;;;;;2.55;0.80;;;9.80;99.90;;;;;;6221259;23;20173;-84
2023/01/06 00:30:42;;;;;;;0.90;0.60;;;9.80;99.90;;;;;;6219441;23;20234;-82
2023/01/06 00:33:08;;;;;;;2.40;0.90;;;9.80;99.90;;;;;;6220107;23;20226;-86
2023/01/06 00:35:33;;;;;;;1.80;0.80;;;9.80;99.90;;;;;;6246414;23;20606;-84
2023/01/06 00:37:59;;;;;;;2.77;1.07;;;9.90;99.90;;;;;;6247781;22;20669;-85
2023/01/06 00:40:24;;;;;;;1.87;1.00;;;9.90;99.90;;;;;;6247350;23;20199;-84
2023/01/06 00:42:50;;;;;;;1.87;1.67;;;10.00;99.90;;;;;;6247527;23;20141;-82
2023/01/06 00:45:15;;;;;;;3.50;1.73;;;10.00;99.90;;;;;;6269803;22;20140;-84
2023/01/06 00:47:41;;;;;;;1.70;1.40;;;10.10;99.90;;;;;;6256560;22;20172;-85
2023/01/06 00:50:07;;;;;;;3.10;0.70;;;10.10;99.90;;;;;;6228821;23;20144;-85
2023/01/06 00:52:33;;;;;;;1.85;0.90;;;10.10;99.90;;;;;;6227715;23;20211;-83
2023/01/06 00:54:58;;;;;;;3.10;0.97;;;10.20;99.90;;;;;;6252947;23;20145;-81
2023/01/06 00:57:24;;;;;;;0.80;0.80;;;10.30;99.90;;;;;;6256028;22;20395;-83
2023/01/06 00:59:50;;;;;;;0.90;0.70;;;10.30;99.90;;;;;;6250093;23;20175;-84
2023/01/06 01:02:15;;;;;;;1.10;0.80;;;10.20;99.90;;;;;;6253031;23;20439;-85
2023/01/06 01:04:41;;;;;;;1.13;0.97;;;10.10;99.90;;;;;;6220762;23;20213;-82
2023/01/06 01:07:07;;;;;;;0.70;0.60;;;10.00;99.90;;;;;;6221371;22;20595;-84
2023/01/06 01:09:32;;;;;;;1.23;0.70;;;10.00;99.90;;;;;;6247921;23;20655;-82
2023/01/06 01:12:11;;;;;;;2.43;0.80;;;10.00;99.90;;;;;;6220993;23;20158;-86
2023/01/06 01:14:46;;;;;;;1.40;0.98;;;10.00;99.90;;;;;;6246965;23;20187;-83
2023/01/06 01:17:13;;;;;;;1.55;1.05;;;10.00;99.90;;;;;;6247936;22;20689;-84
2023/01/06 01:19:40;;;;;;;4.53;0.98;;;10.00;99.90;;;;;;6245579;23;20184;-85
2023/01/06 01:22:06;;;;;;;2.58;1.10;;;10.00;99.90;;;;;;6260515;22;20163;-85
2023/01/06 01:24:33;;;;;;;1.15;0.70;;;10.00;99.90;;;;;;6222775;23;20220;-84
2023/01/06 01:26:59;;;;;;;0.90;0.70;;;10.10;99.90;;;;;;6248528;22;20133;-83
2023/01/06 01:29:25;;;;;;;1.30;1.07;;;10.20;99.90;;;;;;6247079;23;21003;-80
2023/01/06 01:31:51;;;;;;;2.47;1.35;;;10.20;99.90;;;;;;6242481;23;20184;-82
2023/01/06 01:34:17;;;;;;;1.67;1.57;;;10.30;99.90;;;;;;6219327;23;20159;-84
2023/01/06 01:36:44;;;;;;;0.80;0.70;;;10.30;99.90;;;;;;6246534;23;20371;-84
2023/01/06 01:39:11;;;;;;;1.08;0.70;;;10.30;99.90;;;;;;6220431;23;20243;-83
2023/01/06 01:41:37;;;;;;;2.05;1.02;;;10.30;99.90;;;;;;6247002;23;20160;-83
2023/01/06 01:44:41;;;;;;;2.60;1.20;;;10.30;99.90;;;;;;6219058;23;20983;-82
2023/01/06 01:47:08;;;;;;;1.27;0.70;;;10.30;99.90;;;;;;6219561;22;20521;-82
2023/01/06 01:49:37;;;;;;;0.60;0.60;;;10.30;99.90;;;;;;6219739;23;20958;-83
2023/01/06 01:52:03;;;;;;;0.95;0.75;;;10.40;99.90;;;;;;6219561;23;20188;-83
2023/01/06 01:54:31;;;;;;;1.60;1.40;;;10.40;99.90;;;;;;6246753;23;20160;-83
2023/01/06 01:57:09;;;;;;;1.17;0.70;;;10.50;99.90;;;;;;6246932;22;20153;-80
2023/01/06 01:59:37;;;;;;;2.65;0.85;;;10.50;99.90;;;;;;6219896;23;20192;-82
2023/01/06 02:02:02;;;;;;;0.82;0.75;;;10.60;99.90;;;;;;6219682;23;20152;-83
2023/01/06 02:04:31;;;;;;;1.57;1.07;;;10.60;99.90;;;;;;6219274;23;20163;-82
2023/01/06 02:06:57;;;;;;;1.95;0.75;;;10.70;99.90;;;;;;6223415;22;20149;-80
2023/01/06 02:09:28;;;;;;;0.93;0.93;;;10.80;99.90;;;;;;6225821;23;20168;-82
2023/01/06 02:11:56;;;;;;;0.80;0.50;;;10.70;99.90;;;;;;6231191;23;20140;-86
2023/01/06 02:14:25;;;;;;;1.77;0.95;;;10.70;99.90;;;;;;6251864;23;20620;-84
2023/01/06 02:17:18;;;;;;;1.85;1.48;;;10.70;99.90;;;;;;6222995;23;20163;-82
2023/01/06 02:19:47;;;;;;;1.70;0.85;;;10.60;99.90;;;;;;6246259;23;20180;-84
2023/01/06 02:22:44;;;;;;;2.78;0.80;;;10.60;99.90;;;;;;6220902;23;20156;-85
2023/01/06 02:25:31;;;;;;;1.00;0.90;;;10.60;99.90;;;;;;6219663;23;20145;-81
2023/01/06 02:28:26;;;;;;;1.13;0.95;;;10.60;99.90;;;;;;6247743;22;20164;-83
2023/01/06 02:31:15;;;;;;;0.85;0.60;;;10.80;99.90;;;;;;6246950;23;20172;-84
2023/01/06 02:33:49;;;;;;;1.20;0.70;;;10.80;99.90;;;;;;6246467;23;20187;-85
2023/01/06 02:36:20;;;;;;;1.63;0.82;;;10.80;99.90;;;;;;6258817;22;20195;-81
2023/01/06 02:39:07;;;;;;;0.60;0.60;;;10.90;99.90;;;;;;6269055;22;20215;-85
2023/01/06 02:41:36;;;;;;;2.05;1.70;;;10.70;99.90;;;;;;6277385;22;20128;-84
2023/01/06 02:44:20;;;;;;;1.25;1.05;;;10.90;99.90;;;;;;6264778;22;20163;-82
2023/01/06 02:46:57;;;;;;;3.00;1.30;;;10.90;99.90;;;;;;6284700;22;20128;-84
2023/01/06 02:50:04;;;;;;;1.10;1.00;;;11.00;99.90;;;;;;6247866;23;20152;-86
2023/01/06 02:52:59;;;;;;;0.90;0.60;;;11.00;99.90;;;;;;6246722;23;20156;-84
2023/01/06 02:55:41;;;;;;;0.70;0.47;;;10.90;99.90;;;;;;6248526;23;20133;-85
2023/01/06 02:58:13;;;;;;;2.00;0.85;;;10.90;99.90;;;;;;6220347;23;20195;-84
2023/01/06 03:00:44;;;;;;;1.67;0.60;;;11.00;99.90;;;;;;6247686;23;20259;-86
2023/01/06 03:03:14;;;;;;;1.40;0.70;;;11.00;99.90;;;;;;6247336;23;20197;-85
2023/01/06 03:05:43;;;;;;;0.60;0.57;;;11.00;99.90;;;;;;6247057;23;20144;-84
2023/01/06 03:08:16;;;;;;;1.75;1.27;;;11.00;99.90;;;;;;6247746;23;20171;-85
2023/01/06 03:10:44;;;;;;;0.73;0.60;;;10.90;99.90;;;;;;6245706;23;20151;-85
2023/01/06 03:13:23;;;;;;;1.95;0.70;;;11.00;99.90;;;;;;6218202;23;20231;-86
2023/01/06 03:15:49;;;;;;;0.65;0.60;;;11.00;99.90;;;;;;6217041;23;20144;-86
2023/01/06 03:18:15;;;;;;;1.13;0.90;;;11.00;99.90;;;;;;6253671;23;20279;-83
2023/01/06 03:20:41;;;;;;;0.90;0.80;;;11.10;99.90;;;;;;6255081;23;20414;-84
2023/01/06 03:23:06;;;;;;;1.20;1.00;;;11.10;99.90;;;;;;6222060;23;20430;-84
2023/01/06 03:25:32;;;;;;;0.90;0.90;;;11.20;99.90;;;;;;6253022;23;20196;-83
2023/01/06 03:27:57;;;;;;;0.67;0.60;;;11.20;99.90;;;;;;6262457;23;20164;-83
2023/01/06 03:30:27;;;;;;;1.97;0.67;;;11.20;99.90;;;;;;6254670;23;20158;-84
2023/01/06 03:33:04;;;;;;;4.35;1.08;;;11.20;99.90;;;;;;6252061;23;20551;-85
2023/01/06 03:35:45;;;;;;;0.80;0.80;;;11.20;99.90;;;;;;6221374;23;20210;-86
2023/01/06 03:38:34;;;;;;;2.20;0.70;;;11.10;99.90;;;;;;6247749;23;20188;-84
2023/01/06 03:41:17;;;;;;;2.47;1.50;;;11.00;99.90;;;;;;6247156;23;20197;-86
2023/01/06 03:44:05;;;;;;;0.60;0.60;;;11.00;99.90;;;;;;6222604;23;20140;-85
2023/01/06 03:46:41;;;;;;;1.35;1.00;;;10.90;99.90;;;;;;6249172;23;20149;-83
2023/01/06 03:49:10;;;;;;;2.10;1.42;;;10.80;99.90;;;;;;6221527;23;20541;-84
2023/01/06 03:52:09;;;;;;;1.20;1.10;;;10.70;99.90;;;;;;6218453;23;20214;-84
2023/01/06 03:54:52;;;;;;;4.43;2.05;;;10.70;99.90;;;;;;6247402;23;20144;-85
2023/01/06 03:57:23;;;;;;;0.90;0.90;;;10.60;99.90;;;;;;6222199;23;20176;-82
2023/01/06 03:59:53;;;;;;;3.05;2.58;;;10.50;99.90;;;;;;6247718;23;20160;-84
2023/01/06 04:02:21;;;;;;;2.88;1.42;;;10.50;99.90;;;;;;6248093;23;20156;-83
2023/01/06 04:05:30;;;;;;;2.17;1.90;;;10.50;99.90;;;;;;6248793;23;20187;-85
2023/01/06 04:07:56;;;;;;;2.20;1.10;;;10.40;99.90;;;;;;6216273;23;20173;-83
2023/01/06 04:10:22;;;;;;;1.47;1.37;;;10.40;99.90;;;;;;6257927;23;20205;-82
2023/01/06 04:12:48;;;;;;;2.70;1.60;;;10.40;99.90;;;;;;6261267;23;20162;-86
2023/01/06 04:15:19;;;;;;;2.07;1.87;;;10.40;99.90;;;;;;6249390;23;20180;-83
2023/01/06 04:17:46;;;;;;;1.77;1.35;;;10.40;99.90;;;;;;6249876;23;20489;-86
2023/01/06 04:20:15;;;;;;;1.83;1.73;;;10.30;99.90;;;;;;6247167;23;20172;-82
2023/01/06 04:22:41;;;;;;;1.63;1.52;;;10.30;99.90;;;;;;6249507;23;20155;-82
2023/01/06 04:25:07;;;;;;;1.08;0.90;;;10.30;99.90;;;;;;6220888;23;20372;-85
2023/01/06 04:27:33;;;;;;;2.17;1.10;;;10.30;99.90;;;;;;6247519;23;20161;-84
2023/01/06 04:29:58;;;;;;;8.23;1.30;;;10.40;99.90;;;;;;6246957;23;20151;-86
2023/01/06 04:32:24;;;;;;;5.23;1.93;;;10.30;99.90;;;;;;6246431;23;20148;-85
2023/01/06 04:34:49;;;;;;;1.20;1.10;;;10.30;99.90;;;;;;6219677;23;20212;-86
2023/01/06 04:37:15;;;;;;;5.30;1.40;;;10.30;99.90;;;;;;6219802;23;20529;-84
2023/01/06 04:39:41;;;;;;;2.13;1.70;;;10.30;99.90;;;;;;6219474;23;20172;-84
2023/01/06 04:42:07;;;;;;;1.33;1.23;;;10.30;99.90;;;;;;6246492;23;20360;-84
2023/01/06 04:44:32;;;;;;;3.27;1.10;;;10.30;99.90;;;;;;6246280;23;20152;-85
2023/01/06 04:46:58;;;;;;;2.80;1.73;;;10.30;99.90;;;;;;6220742;23;20155;-84
2023/01/06 04:49:23;;;;;;;1.53;1.07;;;10.30;99.90;;;;;;6244799;23;20164;-84
2023/01/06 04:51:49;;;;;;;1.73;1.63;;;10.30;99.90;;;;;;6251822;23;20223;-87
2023/01/06 04:54:15;;;;;;;1.83;1.73;;;10.30;99.90;;;;;;6248182;23;20225;-83
2023/01/06 04:56:40;;;;;;;1.87;1.53;;;10.30;99.90;;;;;;6248026;23;20204;-86
2023/01/06 04:59:06;;;;;;;1.67;1.30;;;10.30;99.90;;;;;;6248496;23;20176;-86
2023/01/06 05:01:31;;;;;;;1.97;1.20;;;10.30;99.90;;;;;;6248030;23;20140;-84
2023/01/06 05:03:57;;;;;;;2.40;2.03;;;10.30;99.90;;;;;;6248162;23;20152;-82
2023/01/06 05:06:23;;;;;;;3.13;1.30;;;10.30;99.90;;;;;;6247748;23;20160;-83
2023/01/06 05:08:48;;;;;;;2.97;2.30;;;10.30;99.90;;;;;;6249555;23;20176;-83
2023/01/06 05:11:20;;;;;;;1.70;1.60;;;10.40;99.90;;;;;;6223470;23;20382;-84
2023/01/06 05:13:45;;;;;;;1.98;1.80;;;10.40;99.90;;;;;;6247967;23;20121;-85
2023/01/06 05:16:15;;;;;;;3.10;2.80;;;10.30;99.90;;;;;;6248287;23;20487;-84
2023/01/06 05:18:41;;;;;;;2.47;2.28;;;10.30;99.90;;;;;;6222013;23;20195;-84
2023/01/06 05:21:07;;;;;;;2.20;2.03;;;10.30;99.90;;;;;;6246029;23;20571;-85
2023/01/06 05:23:32;;;;;;;2.03;1.90;;;10.30;99.90;;;;;;6249426;23;20467;-86
2023/01/06 05:25:58;;;;;;;1.20;1.10;;;10.20;99.90;;;;;;6221388;23;20156;-84
2023/01/06 05:28:24;;;;;;;2.50;2.30;;;10.20;99.90;;;;;;6249717;23;20169;-84
2023/01/06 05:30:49;;;;;;;3.47;3.17;;;10.20;99.90;;;;;;6249428;23;20149;-84
2023/01/06 05:33:15;;;;;;;2.03;1.83;;;10.10;99.90;;;;;;6253390;23;20132;-83
2023/01/06 05:35:40;;;;;;;3.00;2.80;;;10.10;99.90;;;;;;6264424;22;20153;-82
2023/01/06 05:38:06;;;;;;;5.07;4.60;;;10.10;99.90;;;;;;6249321;23;20693;-86
2023/01/06 05:40:33;;;;;;;5.83;2.33;;;10.10;99.90;;;;;;6220724;23;20188;-85
2023/01/06 05:42:59;;;;;;;3.08;2.40;;;10.00;99.90;;;;;;6246540;23;20166;-85
2023/01/06 05:45:25;;;;;;;2.47;2.27;;;10.00;99.90;;;;;;6247742;23;20594;-86
2023/01/06 05:47:51;;;;;;;2.80;2.20;;;10.10;99.90;;;;;;6243889;23;20202;-86
2023/01/06 05:50:16;;;;;;;2.20;1.83;;;10.10;99.90;;;;;;6244804;23;20952;-84
2023/01/06 05:52:42;;;;;;;2.37;2.17;;;10.10;99.90;;;;;;6216349;23;20194;-86
2023/01/06 05:55:08;;;;;;;3.00;2.07;;;10.00;99.90;;;;;;6245219;23;20175;-85
2023/01/06 05:57:35;;;;;;;3.53;2.97;;;10.10;99.90;;;;;;6243864;23;20191;-84
2023/01/06 06:00:02;;;;;;;1.83;1.73;;;10.10;99.90;;;;;;6246270;23;20199;-83
2023/01/06 06:02:28;;;;;;;1.08;0.98;;;10.10;99.90;;;;;;6246777;23;20602;-82
2023/01/06 06:04:53;;;;;;;1.05;1.00;;;10.10;99.90;;;;;;6217408;23;20159;-83
2023/01/06 06:07:19;;;;;;;1.00;0.70;;;10.10;99.90;;;;;;6249908;23;20168;-83
2023/01/06 06:09:44;;;;;;;0.93;0.90;;;10.20;99.90;;;;;;6264562;23;20151;-83
2023/01/06 06:12:11;;;;;;;0.80;0.80;;;10.20;99.90;;;;;;6264189;23;20144;-81
2023/01/06 06:14:36;;;;;;;1.00;0.90;;;10.20;99.90;;;;;;6219340;23;20152;-83
2023/01/06 06:17:02;;;;;;;3.80;2.40;;;10.20;99.90;;;;;;6221999;23;20247;-83
2023/01/06 06:19:27;;;;;;;1.17;0.70;;;10.20;99.90;;;;;;6248285;23;20195;-84
2023/01/06 06:21:53;;;;;;;2.30;0.97;;;10.20;99.90;;;;;;6255311;23;20133;-82
2023/01/06 06:24:18;;;;;;;2.53;1.07;;;10.20;99.90;;;;;;6267797;22;20137;-82
2023/01/06 06:26:44;;;;;;;1.20;1.10;;;10.20;99.90;;;;;;6260447;23;20152;-84
2023/01/06 06:29:10;;;;;;;1.73;1.30;;;10.20;99.90;;;;;;6248312;23;20516;-85
2023/01/06 06:31:35;;;;;;;1.30;1.00;;;10.10;99.90;;;;;;6241819;23;20144;-84
2023/01/06 06:34:01;;;;;;;1.40;1.30;;;10.10;99.90;;;;;;6246891;23;20904;-83
2023/01/06 06:36:28;;;;;;;1.10;0.65;;;10.10;99.90;;;;;;6220682;23;20163;-84
2023/01/06 06:38:53;;;;;;;1.10;1.00;;;10.10;99.90;;;;;;6246069;23;20200;-84
2023/01/06 06:41:20;;;;;;;3.07;1.90;;;10.10;99.90;;;;;;6220893;23;20156;-83
2023/01/06 06:43:50;;;;;;;1.80;1.50;;;10.00;99.90;;;;;;6218567;23;20636;-87
2023/01/06 06:46:16;;;;;;;1.65;1.55;;;10.00;99.90;;;;;;6244775;23;20155;-86
2023/01/06 06:48:41;;;;;;;2.00;1.83;;;9.90;99.90;;;;;;6217250;23;20256;-84
2023/01/06 06:51:10;;;;;;;1.97;1.47;;;9.80;99.90;;;;;;6218336;23;20152;-86
2023/01/06 06:53:36;;;;;;;3.03;1.58;;;9.80;99.90;;;;;;6244035;23;20149;-85
2023/01/06 06:56:03;;;;;;;1.10;0.95;;;9.80;99.90;;;;;;6244830;23;20152;-85
2023/01/06 06:58:28;;;;;;;1.40;1.10;;;9.80;99.90;;;;;;6257001;23;20564;-84
2023/01/06 07:00:54;;;;;;;3.20;1.77;;;9.80;99.90;;;;;;6232352;23;20232;-84
2023/01/06 07:03:20;;;;;;;1.40;1.00;;;9.80;99.90;;;;;;6266418;23;20159;-83
2023/01/06 07:05:47;;;;;;;2.27;1.20;;;9.80;99.90;;;;;;6263178;23;20179;-83
2023/01/06 07:08:13;;;;;;;2.35;1.30;;;9.80;99.90;;;;;;6266775;23;20152;-85
2023/01/06 07:10:39;;;;;;;4.30;1.60;;;9.80;99.90;;;;;;6267147;23;20195;-84
2023/01/06 07:13:05;;;;;;;2.83;1.23;;;9.70;99.90;;;;;;6240046;23;20161;-84
2023/01/06 07:15:31;;;;;;;0.80;0.80;;;9.60;99.90;;;;;;6266022;23;20180;-82
2023/01/06 07:18:01;;;;;;;1.50;1.20;;;9.60;99.90;;;;;;6241122;23;20478;-82
2023/01/06 07:20:27;;;;;;;2.00;1.90;;;9.50;99.90;;;;;;6240731;23;20180;-83
2023/01/06 07:22:53;;;;;;;2.13;1.30;;;9.40;99.90;;;;;;6240580;23;20171;-82
2023/01/06 07:25:20;;;;;;;2.50;1.30;;;9.40;99.90;;;;;;6265631;23;20144;-85
2023/01/06 07:27:45;;;;;;;5.10;1.10;;;9.40;99.90;;;;;;6266737;23;20201;-84
2023/01/06 07:30:11;;;;;;;1.10;0.90;;;9.40;99.90;;;;;;6262924;22;20145;-85
2023/01/06 07:32:37;;;;;;;5.78;1.55;;;9.40;99.90;;;;;;6251559;23;20152;-85
2023/01/06 07:35:02;;;;;;;3.63;1.40;;;9.40;99.90;;;;;;6249769;23;20141;-86
2023/01/06 07:37:28;;;;;;;6.03;1.47;;;9.50;99.90;;;;;;6249825;23;20176;-86
2023/01/06 07:39:53;;;;;;;2.80;1.30;;;9.40;99.90;;;;;;6223077;23;20208;-87
2023/01/06 07:42:19;;;;;;;3.33;1.80;;;9.40;99.90;;;;;;6246342;23;20148;-87
2023/01/06 07:44:45;;;;;;;1.83;1.20;;;9.50;99.90;;;;;;6249600;23;20144;-87
2023/01/06 07:47:10;;;;;;;1.80;1.27;;;9.50;99.90;;;;;;6249442;23;20156;-83
2023/01/06 07:49:36;;;;;;;2.60;1.47;;;9.50;99.90;;;;;;6249414;23;20148;-86
2023/01/06 07:52:02;;;;;;;3.10;1.63;;;9.50;99.90;;;;;;6250268;23;20156;-86
2023/01/06 07:54:27;;;;;;;1.93;1.27;;;9.60;99.90;;;;;;6254312;23;20156;-84
2023/01/06 07:56:53;;;;;;;2.90;1.13;;;9.50;99.90;;;;;;6256282;23;20199;-87
2023/01/06 07:59:18;;;;;;;1.60;1.20;;;9.60;99.90;;;;;;6223440;23;20246;-84
2023/01/06 08:01:44;;;;;;;7.30;1.57;;;9.60;99.90;;;;;;6249644;23;20557;-85
2023/01/06 08:04:09;;;;;;;7.17;1.20;;;9.60;99.90;;;;;;6221988;23;20228;-84
2023/01/06 08:06:38;;;;;;;2.87;1.70;;;9.60;99.90;;;;;;6251530;23;20148;-84
2023/01/06 08:09:04;;;;;;;1.63;1.33;;;9.60;99.90;;;;;;6224572;23;20182;-83
2023/01/06 08:11:29;;;;;;;2.03;1.13;;;9.60;99.90;;;;;;6251822;23;20164;-85
2023/01/06 08:13:55;;;;;;;2.20;1.30;;;9.70;99.90;;;;;;6222931;23;20207;-83
2023/01/06 08:16:20;;;;;;;4.27;1.07;;;9.70;99.90;;;;;;6248035;23;20149;-86
2023/01/06 08:18:46;;;;;;;1.83;1.07;;;9.80;99.90;;;;;;6246410;23;20180;-83
2023/01/06 08:21:11;;;;;;;2.30;1.00;;;9.80;99.90;;;;;;6219649;23;20149;-86
2023/01/06 08:23:37;;;;;;;1.77;1.20;;;9.70;99.90;;;;;;6264225;23;20170;-81
2023/01/06 08:26:05;;;;;;;1.73;1.30;;;9.80;99.90;;;;;;6254875;23;20209;-86
2023/01/06 08:28:32;;;;;;;2.00;1.80;;;9.80;99.90;;;;;;6222660;23;20403;-85
2023/01/06 08:30:58;;;;;;;7.03;1.40;;;9.90;99.90;;;;;;6248818;23;20247;-81
2023/01/06 08:33:24;;;;;;;2.43;1.40;;;9.90;99.90;;;;;;6222243;23;20662;-83
2023/01/06 08:35:51;;;;;;;2.45;1.30;;;10.00;99.90;;;;;;6226723;23;20157;-84
2023/01/06 08:38:17;;;;;;;2.33;1.80;;;10.10;99.90;;;;;;6225840;23;20192;-83
2023/01/06 08:40:43;;;;;;;1.73;1.23;;;10.10;99.90;;;;;;6218719;23;20501;-82
2023/01/06 08:43:08;;;;;;;2.08;1.45;;;10.30;99.90;;;;;;6218316;23;20152;-85
2023/01/06 08:45:38;;;;;;;3.90;1.97;;;10.30;99.90;;;;;;6244774;23;20149;-81
2023/01/06 08:48:03;;;;;;;2.13;1.92;;;10.40;99.90;;;;;;6217412;23;20159;-81
2023/01/06 08:50:29;;;;;;;1.97;1.87;;;10.50;99.90;;;;;;6244458;23;20236;-83
2023/01/06 08:52:55;;;;;;;2.10;1.03;;;10.50;99.90;;;;;;6215660;23;20183;-83
2023/01/06 08:55:20;;;;;;;1.80;1.63;;;10.70;99.90;;;;;;6217991;23;20164;-83
2023/01/06 08:57:46;;;;;;;3.43;1.77;;;10.70;99.90;;;;;;6244306;23;20210;-82
2023/01/06 09:00:12;;;;;;;2.37;1.33;;;10.90;99.90;;;;;;6244967;23;20199;-81
2023/01/06 09:02:37;;;;;;;2.65;1.75;;;11.00;99.90;;;;;;6216866;23;20169;-82
2023/01/06 09:05:04;;;;;;;1.60;1.50;;;11.10;99.90;;;;;;6244723;23;20155;-83
2023/01/06 09:07:29;;;;;;;0.93;0.93;;;11.20;99.90;;;;;;6244363;23;20595;-82
2023/01/06 09:09:55;;;;;;;1.10;1.00;;;11.30;99.90;;;;;;6217046;23;20242;-81
2023/01/06 09:12:21;;;;;;;1.97;1.13;;;11.40;99.90;;;;;;6218053;23;20202;-84
2023/01/06 09:14:46;;;;;;;0.80;0.73;;;11.40;99.90;;;;;;6217869;23;20210;-81
2023/01/06 09:17:12;;;;;;;1.37;1.00;;;11.30;99.90;;;;;;6245493;23;20148;-81
2023/01/06 09:19:37;;;;;;;4.57;1.50;;;11.30;99.90;;;;;;6219512;23;20215;-84
2023/01/06 09:22:03;;;;;;;4.50;1.40;;;11.50;99.90;;;;;;6246138;23;20529;-86
2023/01/06 09:24:29;;;;;;;3.05;1.40;;;11.30;99.90;;;;;;6218990;23;20163;-84
2023/01/06 09:26:54;;;;;;;1.87;1.20;;;11.10;99.90;;;;;;6219333;23;20473;-85
2023/01/06 09:29:20;;;;;;;1.80;1.37;;;11.20;99.90;;;;;;6222431;23;20179;-83
2023/01/06 09:31:46;;;;;;;3.10;1.13;;;11.20;99.90;;;;;;6218987;23;20191;-85
2023/01/06 09:34:11;;;;;;;1.27;1.00;;;11.20;99.90;;;;;;6243982;23;20579;-84
2023/01/06 09:36:37;;;;;;;2.60;1.30;;;11.10;99.90;;;;;;6246581;23;20152;-83
2023/01/06 09:39:02;;;;;;;2.07;1.10;;;10.80;99.90;;;;;;6217854;23;20208;-82
2023/01/06 09:41:44;;;;;;;2.40;1.03;;;11.00;99.90;;;;;;6216684;23;20195;-82
2023/01/06 09:44:29;;;;;;;2.38;1.52;;;11.00;99.90;;;;;;6217359;23;20586;-83
2023/01/06 09:46:56;;;;;;;1.65;1.33;;;11.00;99.90;;;;;;6217025;23;20425;-83
2023/01/06 09:49:41;;;;;;;1.30;1.20;;;11.00;99.90;;;;;;6244398;23;20585;-85
2023/01/06 09:52:23;;;;;;;2.25;0.98;;;10.90;99.90;;;;;;6218398;23;20203;-84
2023/01/06 09:55:01;;;;;;;2.17;1.13;;;10.90;99.90;;;;;;6246089;23;20587;-81
2023/01/06 09:57:54;;;;;;;3.05;1.05;;;10.80;99.90;;;;;;6245320;23;20756;-83
2023/01/06 10:00:40;;;;;;;1.20;1.10;;;10.80;99.90;;;;;;6217584;23;20183;-83
2023/01/06 10:03:12;;;;;;;2.13;1.33;;;10.70;99.90;;;;;;6217086;23;20172;-82
2023/01/06 10:06:05;;;;;;;1.85;1.30;;;10.70;99.90;;;;;;6217713;23;20136;-82
2023/01/06 10:08:57;;;;;;;2.30;1.23;;;10.90;99.90;;;;;;6244993;23;20469;-84
2023/01/06 10:11:34;;;;;;;1.52;1.10;;;10.90;99.90;;;;;;6244791;23;20192;-82
2023/01/06 10:14:05;;;;;;;2.25;0.90;;;10.80;99.90;;;;;;6218879;23;20176;-81
2023/01/06 10:17:01;;;;;;;1.17;1.05;;;11.00;99.90;;;;;;6242645;23;20141;-83
2023/01/06 10:20:05;;;;;;;2.17;0.70;;;11.30;99.90;;;;;;6243176;23;20583;-84
2023/01/06 10:23:07;;;;;;;2.00;1.00;;;11.40;99.90;;;;;;6212487;23;20172;-85
2023/01/06 10:25:45;;;;;;;1.73;1.00;;;11.40;99.90;;;;;;6245303;23;20574;-83
2023/01/06 10:28:29;;;;;;;2.05;1.17;;;11.30;99.90;;;;;;6245861;23;20268;-83
2023/01/06 10:31:01;;;;;;;1.20;1.00;;;11.10;99.90;;;;;;6245467;23;20163;-82
2023/01/06 10:33:39;;;;;;;4.10;0.80;;;11.20;99.90;;;;;;6244907;23;20183;-83
2023/01/06 10:36:11;;;;;;;3.03;1.08;;;11.10;99.90;;;;;;6246725;23;20139;-84
2023/01/06 10:38:40;;;;;;;1.73;0.60;;;11.30;99.90;;;;;;6247411;23;20148;-83
2023/01/06 10:41:23;;;;;;;2.47;0.70;;;11.20;99.90;;;;;;6219235;23;20196;-83
2023/01/06 10:43:48;;;;;;;1.15;0.70;;;11.40;99.90;;;;;;6247282;23;20165;-83
2023/01/06 10:46:14;;;;;;;0.50;0.30;;;11.50;99.90;;;;;;6218911;23;20156;-84
2023/01/06 10:48:40;;;;;;;1.10;0.63;;;11.20;99.90;;;;;;6248309;23;20155;-85
2023/01/06 10:51:31;;;;;;;1.23;0.60;;;11.20;99.90;;;;;;6247281;23;20196;-85
2023/01/06 10:54:00;;;;;;;1.00;0.60;;;11.00;99.90;;;;;;6247992;23;20363;-81
2023/01/06 10:56:28;;;;;;;2.10;0.60;;;10.90;99.90;;;;;;6222393;23;20156;-83
2023/01/06 10:58:57;;;;;;;0.95;0.40;;;10.90;99.90;;;;;;6221686;23;20152;-85
2023/01/06 11:01:28;;;;;;;0.85;0.52;;;11.00;99.90;;;;;;6221693;23;20191;-82
2023/01/06 11:04:11;;;;;;;2.40;0.45;;;11.20;99.90;;;;;;6221121;23;20168;-85
2023/01/06 11:06:54;;;;;;;0.70;0.50;;;11.30;99.90;;;;;;6220847;23;20153;-82
2023/01/06 11:09:39;;;;;;;0.60;0.60;;;11.70;99.90;;;;;;6220485;23;20461;-83
2023/01/06 11:12:22;;;;;;;0.50;0.50;;;12.00;99.90;;;;;;6220316;23;20267;-86
2023/01/06 11:14:58;;;;;;;0.85;0.50;;;11.90;99.90;;;;;;6220117;23;20222;-84
2023/01/06 11:17:25;;;;;;;0.60;0.40;;;11.80;99.90;;;;;;6248443;23;20236;-83
2023/01/06 11:20:05;;;;;;;0.95;0.43;;;11.60;99.90;;;;;;6245909;23;20222;-84
2023/01/06 11:22:36;;;;;;;1.40;0.70;;;11.50;99.90;;;;;;6220520;23;20168;-81
2023/01/06 11:25:20;;;;;;;1.45;0.30;;;11.50;99.90;;;;;;6221179;23;20149;-82
2023/01/06 11:27:47;;;;;;;3.30;0.40;;;11.30;99.90;;;;;;6247096;23;20147;-81
2023/01/06 11:30:26;;;;;;;0.80;0.50;;;11.20;99.90;;;;;;6220226;23;20153;-82
2023/01/06 11:32:53;;;;;;;0.40;0.30;;;11.20;99.90;;;;;;6219396;23;20211;-83
2023/01/06 11:35:20;;;;;;;0.40;0.30;;;11.20;99.90;;;;;;6220253;23;20157;-82
2023/01/06 11:37:46;;;;;;;0.55;0.50;;;11.20;99.90;;;;;;6247633;23;20194;-82
2023/01/06 11:40:16;;;;;;;0.40;0.40;;;11.20;99.90;;;;;;6246773;23;20184;-82
2023/01/06 11:42:42;;;;;;;0.40;0.30;;;11.30;99.90;;;;;;6245732;23;20390;-82
2023/01/06 11:45:57;;;;;;;0.70;0.38;;;11.20;99.90;;;;;;6219911;23;20156;-83
2023/01/06 11:48:30;;;;;;;0.52;0.40;;;11.20;99.90;;;;;;6196168;23;20152;-81
2023/01/06 11:51:01;;;;;;;2.10;0.80;;;11.10;99.90;;;;;;6221077;23;20145;-83
2023/01/06 11:53:28;;;;;;;0.55;0.30;;;11.20;99.90;;;;;;6249269;23;20145;-82
2023/01/06 11:56:12;;;;;;;0.63;0.47;;;11.20;99.90;;;;;;6248480;23;20258;-85
2023/01/06 11:59:06;;;;;;;2.05;0.70;;;11.30;99.90;;;;;;6221841;23;20259;-84
2023/01/06 12:01:39;;;;;;;0.73;0.40;;;11.40;99.90;;;;;;6207654;23;20192;-84
2023/01/06 12:04:16;;;;;;;1.90;0.70;;;11.40;99.90;;;;;;6249566;23;20136;-82
2023/01/06 12:06:43;;;;;;;0.57;0.40;;;11.60;99.90;;;;;;6222381;23;20153;-85
2023/01/06 12:09:23;;;;;;;0.90;0.60;;;11.40;99.90;;;;;;6220884;23;20609;-85
2023/01/06 12:11:51;;;;;;;0.45;0.38;;;11.40;99.90;;;;;;6221764;23;20176;-86
2023/01/06 12:14:23;;;;;;;1.40;0.73;;;11.20;99.90;;;;;;6221246;23;20210;-86
2023/01/06 12:17:19;;;;;;;0.60;0.47;;;11.30;99.90;;;;;;6220631;23;20153;-85
2023/01/06 12:20:00;;;;;;;3.42;1.30;;;11.30;99.90;;;;;;6247637;23;20183;-86
2023/01/06 12:22:39;;;;;;;2.05;0.50;;;11.30;99.90;;;;;;6220903;23;20288;-83
2023/01/06 12:25:10;;;;;;;0.93;0.60;;;11.30;99.90;;;;;;6248455;23;20507;-84
2023/01/06 12:27:53;;;;;;;1.25;0.52;;;11.50;99.90;;;;;;6221285;23;20228;-82
2023/01/06 12:30:34;;;;;;;0.77;0.77;;;11.50;99.90;;;;;;6247016;23;20642;-84
2023/01/06 12:33:38;;;;;;;0.50;0.40;;;11.50;99.90;;;;;;6245992;23;20171;-82
2023/01/06 12:36:34;;;;;;;2.67;0.40;;;11.50;99.90;;;;;;6245551;23;20136;-83
2023/01/06 12:39:15;;;;;;;1.00;0.57;;;11.50;99.90;;;;;;6212636;23;20163;-82
2023/01/06 12:41:52;;;;;;;0.80;0.57;;;11.80;99.90;;;;;;6219612;23;20184;-83
2023/01/06 12:44:45;;;;;;;1.40;0.60;;;11.60;99.90;;;;;;6218494;23;20140;-83
2023/01/06 12:47:16;;;;;;;1.88;0.50;;;11.60;99.90;;;;;;6245327;23;20144;-82
2023/01/06 12:49:59;;;;;;;3.65;0.80;;;11.50;99.90;;;;;;6217864;23;20152;-84
2023/01/06 12:52:36;;;;;;;1.08;0.60;;;11.20;99.90;;;;;;6242819;23;20168;-83
2023/01/06 12:55:02;;;;;;;0.95;0.77;;;11.20;99.90;;;;;;6245463;23;20148;-86
2023/01/06 12:57:43;;;;;;;1.38;0.60;;;11.10;99.90;;;;;;6218854;23;20697;-85
2023/01/06 13:00:26;;;;;;;1.25;1.15;;;11.00;99.90;;;;;;6245258;23;20176;-81
2023/01/06 13:03:10;;;;;;;1.15;1.00;;;11.20;99.90;;;;;;6219428;23;20172;-82
2023/01/06 13:05:55;;;;;;;0.57;0.55;;;11.20;99.90;;;;;;6219041;23;20148;-84
2023/01/06 13:08:45;;;;;;;1.27;0.77;;;11.30;99.90;;;;;;6247077;23;20133;-84